createdAt,value
2018-10-16T00:00:32.331Z,12.89
2018-10-16T00:03:07.040Z,12.87
2018-10-16T00:05:40.840Z,12.85
2018-10-16T00:08:14.674Z,12.84
2018-10-16T00:10:48.556Z,12.83
2018-10-16T00:13:22.395Z,12.81
2018-10-16T00:15:56.230Z,12.80
2018-10-16T00:18:30.121Z,12.76
2018-10-16T00:21:04.086Z,12.74
2018-10-16T00:23:37.985Z,12.71
2018-10-16T00:26:11.843Z,12.69
2018-10-16T00:28:45.693Z,12.67
2018-10-16T00:31:19.527Z,12.66
2018-10-16T00:33:53.468Z,12.64
2018-10-16T00:36:27.325Z,12.63
2018-10-16T00:39:01.159Z,12.61
2018-10-16T00:41:34.954Z,12.61
2018-10-16T00:44:10.661Z,12.58
2018-10-16T00:46:44.571Z,12.55
2018-10-16T00:49:18.655Z,12.54
2018-10-16T00:51:52.545Z,12.53
2018-10-16T00:54:26.470Z,12.50
2018-10-16T00:57:00.322Z,12.48
2018-10-16T00:59:34.459Z,12.46
2018-10-16T01:02:08.303Z,12.44
2018-10-16T01:04:42.216Z,12.40
2018-10-16T01:07:16.054Z,12.37
2018-10-16T01:09:49.902Z,12.34
2018-10-16T01:12:23.820Z,12.29
2018-10-16T01:14:57.729Z,12.24
2018-10-16T01:17:31.602Z,12.23
2018-10-16T01:20:06.136Z,12.22
2018-10-16T01:22:40.347Z,12.20
2018-10-16T01:25:14.567Z,12.17
2018-10-16T01:27:48.428Z,12.11
2018-10-16T01:30:22.273Z,12.10
2018-10-16T01:32:56.300Z,12.10
2018-10-16T01:35:30.349Z,12.10
2018-10-16T01:38:04.310Z,12.10
2018-10-16T01:40:38.409Z,12.10
2018-10-16T01:43:12.366Z,12.10
2018-10-16T01:45:46.532Z,12.01
2018-10-16T01:48:20.540Z,12.00
2018-10-16T01:50:54.567Z,12.00
2018-10-16T01:53:28.540Z,12.00
2018-10-16T01:56:02.564Z,11.98
2018-10-16T01:58:36.587Z,11.94
2018-10-16T02:01:10.570Z,11.93
2018-10-16T02:03:44.602Z,11.93
2018-10-16T02:06:18.701Z,11.89
2018-10-16T02:08:52.757Z,11.88
2018-10-16T02:11:26.843Z,11.86
2018-10-16T02:14:00.819Z,11.84
2018-10-16T02:16:35.000Z,11.77
2018-10-16T02:19:09.081Z,11.70
2018-10-16T02:21:43.063Z,11.65
2018-10-16T02:24:17.044Z,11.61
2018-10-16T02:26:51.030Z,11.62
2018-10-16T02:29:25.049Z,11.64
2018-10-16T02:31:59.076Z,11.62
2018-10-16T02:34:33.081Z,11.57
2018-10-16T02:37:07.887Z,11.55
2018-10-16T02:39:41.937Z,11.57
2018-10-16T02:42:15.972Z,11.56
2018-10-16T02:44:49.933Z,11.51
2018-10-16T02:47:23.926Z,11.50
2018-10-16T02:49:57.921Z,11.52
2018-10-16T02:52:31.967Z,11.50
2018-10-16T02:55:06.837Z,11.50
2018-10-16T02:57:40.949Z,11.46
2018-10-16T03:00:14.991Z,11.49
2018-10-16T03:02:48.988Z,11.48
2018-10-16T03:05:22.951Z,11.49
2018-10-16T03:07:56.927Z,11.47
2018-10-16T03:10:30.881Z,11.45
2018-10-16T03:13:05.014Z,11.42
2018-10-16T03:15:39.234Z,11.40
2018-10-16T03:18:13.261Z,11.39
2018-10-16T03:20:47.160Z,11.38
2018-10-16T03:23:21.169Z,11.37
2018-10-16T03:25:55.149Z,11.36
2018-10-16T03:28:29.235Z,11.37
2018-10-16T03:31:03.287Z,11.34
2018-10-16T03:33:37.278Z,11.33
2018-10-16T03:36:11.341Z,11.29
2018-10-16T03:38:45.344Z,11.29
2018-10-16T03:41:19.356Z,11.32
2018-10-16T03:43:58.414Z,11.34
2018-10-16T03:46:32.379Z,11.32
2018-10-16T03:49:07.069Z,11.31
2018-10-16T03:51:41.833Z,11.32
2018-10-16T03:54:15.798Z,11.35
2018-10-16T03:56:49.780Z,11.34
2018-10-16T03:59:23.790Z,11.34
2018-10-16T04:01:57.778Z,11.30
2018-10-16T04:04:31.849Z,11.29
2018-10-16T04:07:06.043Z,11.27
2018-10-16T04:09:40.232Z,11.26
2018-10-16T04:12:14.185Z,11.25
2018-10-16T04:14:48.154Z,11.25
2018-10-16T04:17:22.354Z,11.26
2018-10-16T04:19:56.320Z,11.25
2018-10-16T04:22:30.454Z,11.25
2018-10-16T04:25:04.615Z,11.22
2018-10-16T04:27:38.617Z,11.20
2018-10-16T04:30:12.758Z,11.18
2018-10-16T04:32:46.698Z,11.17
2018-10-16T04:35:20.693Z,11.13
2018-10-16T04:37:54.685Z,11.13
2018-10-16T04:40:28.781Z,11.14
2018-10-16T04:43:03.060Z,11.16
2018-10-16T04:45:37.147Z,11.14
2018-10-16T04:48:11.107Z,11.13
2018-10-16T04:50:45.141Z,11.10
2018-10-16T04:53:19.153Z,11.07
2018-10-16T04:55:53.188Z,11.04
2018-10-16T04:58:27.420Z,11.04
2018-10-16T05:01:01.514Z,11.02
2018-10-16T05:03:35.467Z,10.97
2018-10-16T05:06:09.604Z,10.96
2018-10-16T05:08:43.689Z,10.96
2018-10-16T05:11:17.674Z,10.94
2018-10-16T05:13:51.649Z,10.90
2018-10-16T05:16:25.700Z,10.90
2018-10-16T05:18:59.756Z,10.86
2018-10-16T05:21:33.788Z,10.82
2018-10-16T05:24:08.524Z,10.81
2018-10-16T05:26:42.644Z,10.83
2018-10-16T05:29:16.624Z,10.84
2018-10-16T05:31:50.697Z,10.83
2018-10-16T05:34:24.664Z,10.83
2018-10-16T05:36:58.696Z,10.84
2018-10-16T05:39:32.678Z,10.84
2018-10-16T05:42:06.790Z,10.86
2018-10-16T05:44:40.740Z,10.88
2018-10-16T05:47:14.823Z,10.90
2018-10-16T05:49:48.810Z,10.90
2018-10-16T05:52:22.966Z,10.90
2018-10-16T05:54:57.021Z,10.90
2018-10-16T05:57:30.999Z,10.92
2018-10-16T06:00:17.004Z,10.94
2018-10-16T06:02:51.024Z,10.98
2018-10-16T06:05:24.996Z,11.02
2018-10-16T06:07:59.108Z,11.03
2018-10-16T06:10:35.819Z,11.06
2018-10-16T06:13:09.891Z,11.08
2018-10-16T06:15:43.845Z,11.11
2018-10-16T06:18:17.801Z,11.14
2018-10-16T06:20:51.709Z,11.11
2018-10-16T06:23:25.818Z,11.16
2018-10-16T06:25:59.838Z,11.20
2018-10-16T06:28:33.939Z,11.26
2018-10-16T06:31:08.004Z,11.35
2018-10-16T06:33:42.085Z,11.43
2018-10-16T06:36:16.055Z,11.52
2018-10-16T06:38:50.095Z,11.62
2018-10-16T06:41:25.360Z,11.69
2018-10-16T06:43:59.810Z,11.75
2018-10-16T06:46:34.269Z,11.82
2018-10-16T06:49:08.481Z,11.91
2018-10-16T06:51:42.460Z,11.99
2018-10-16T06:54:16.503Z,12.09
2018-10-16T06:56:50.520Z,12.20
2018-10-16T06:59:24.565Z,12.28
2018-10-16T07:01:58.557Z,12.33
2018-10-16T07:04:32.533Z,12.37
2018-10-16T07:07:07.606Z,12.46
2018-10-16T07:09:41.646Z,12.58
2018-10-16T07:12:15.682Z,12.71
2018-10-16T07:14:49.667Z,12.84
2018-10-16T07:17:24.114Z,12.94
2018-10-16T07:19:58.287Z,13.03
2018-10-16T07:22:38.806Z,13.18
2018-10-16T07:25:13.140Z,13.31
2018-10-16T07:27:47.139Z,13.40
2018-10-16T07:30:21.242Z,13.49
2018-10-16T07:32:55.613Z,13.63
2018-10-16T07:35:29.622Z,13.80
2018-10-16T07:38:03.637Z,13.93
2018-10-16T07:40:37.669Z,14.01
2018-10-16T07:43:11.656Z,14.07
2018-10-16T07:45:45.632Z,14.13
2018-10-16T07:48:19.622Z,14.17
2018-10-16T07:50:55.183Z,14.24
2018-10-16T07:53:29.205Z,14.34
2018-10-16T07:56:03.201Z,14.43
2018-10-16T07:58:37.179Z,14.51
2018-10-16T08:01:11.272Z,14.59
2018-10-16T08:03:45.257Z,14.65
2018-10-16T08:06:19.266Z,14.74
2018-10-16T08:08:53.234Z,14.80
2018-10-16T08:11:27.345Z,14.85
2018-10-16T08:14:01.400Z,14.91
2018-10-16T08:16:35.464Z,14.97
2018-10-16T08:19:09.434Z,15.03
2018-10-16T08:21:44.006Z,15.08
2018-10-16T08:24:18.048Z,15.12
2018-10-16T08:26:52.232Z,15.19
2018-10-16T08:29:26.134Z,15.30
2018-10-16T08:32:00.251Z,15.47
2018-10-16T08:34:34.239Z,15.59
2018-10-16T08:37:11.170Z,15.68
2018-10-16T08:39:45.312Z,15.83
2018-10-16T08:42:34.033Z,16.09
2018-10-16T08:45:18.851Z,16.36
2018-10-16T08:48:03.812Z,16.60
2018-10-16T08:50:49.867Z,16.85
2018-10-16T08:53:23.855Z,17.09
2018-10-16T08:55:57.868Z,17.28
2018-10-16T08:58:32.934Z,17.48
2018-10-16T09:01:07.023Z,17.65
2018-10-16T09:03:41.137Z,17.85
2018-10-16T09:06:15.187Z,18.05
2018-10-16T09:08:49.262Z,18.27
2018-10-16T09:11:23.236Z,18.49
2018-10-16T09:13:57.409Z,18.76
2018-10-16T09:16:31.387Z,19.08
2018-10-16T09:19:05.640Z,19.41
2018-10-16T09:21:39.610Z,19.64
2018-10-16T09:24:13.652Z,19.90
2018-10-16T09:26:47.661Z,20.21
2018-10-16T09:29:21.995Z,20.42
2018-10-16T09:31:56.044Z,20.60
2018-10-16T09:34:30.139Z,20.73
2018-10-16T09:37:04.144Z,20.87
2018-10-16T09:39:38.215Z,20.97
2018-10-16T09:42:12.181Z,21.07
2018-10-16T09:44:46.275Z,21.12
2018-10-16T09:47:20.210Z,21.23
2018-10-16T09:49:54.439Z,21.38
2018-10-16T09:52:28.626Z,21.61
2018-10-16T09:55:02.653Z,21.93
2018-10-16T09:57:36.646Z,22.18
2018-10-16T10:00:16.700Z,22.46
2018-10-16T10:02:50.708Z,22.69
2018-10-16T10:05:24.754Z,22.96
2018-10-16T10:07:58.917Z,23.21
2018-10-16T10:10:33.019Z,23.29
2018-10-16T10:13:07.260Z,23.32
2018-10-16T10:15:41.271Z,23.40
2018-10-16T10:18:15.254Z,23.51
2018-10-16T10:20:49.276Z,23.69
2018-10-16T10:23:23.308Z,23.85
2018-10-16T10:25:57.270Z,23.98
2018-10-16T10:28:31.219Z,24.13
2018-10-16T10:31:05.687Z,24.25
2018-10-16T10:33:39.646Z,24.36
2018-10-16T10:36:14.090Z,24.41
2018-10-16T10:38:48.107Z,24.57
2018-10-16T10:41:22.102Z,24.60
2018-10-16T10:43:56.070Z,24.67
2018-10-16T10:46:30.141Z,24.71
2018-10-16T10:49:04.104Z,24.80
2018-10-16T10:51:38.425Z,24.80
2018-10-16T10:54:12.209Z,24.81
2018-10-16T10:56:46.371Z,24.85
2018-10-16T10:59:20.299Z,24.96
2018-10-16T11:01:54.314Z,25.05
2018-10-16T11:04:28.242Z,25.03
2018-10-16T11:07:02.342Z,24.98
2018-10-16T11:09:36.284Z,25.01
2018-10-16T11:12:10.297Z,25.14
2018-10-16T11:14:44.275Z,25.20
2018-10-16T11:17:18.339Z,25.28
2018-10-16T11:19:52.313Z,25.49
2018-10-16T11:22:26.355Z,25.60
2018-10-16T11:25:00.337Z,25.75
2018-10-16T11:27:34.689Z,25.82
2018-10-16T11:30:11.726Z,25.88
2018-10-16T11:32:45.723Z,25.83
2018-10-16T11:35:19.676Z,25.67
2018-10-16T11:37:53.784Z,25.66
2018-10-16T11:40:27.736Z,25.70
2018-10-16T11:43:01.721Z,25.58
2018-10-16T11:45:35.797Z,25.86
2018-10-16T11:48:09.852Z,26.24
2018-10-16T11:50:43.840Z,26.37
2018-10-16T11:53:17.843Z,26.27
2018-10-16T11:55:51.866Z,26.20
2018-10-16T11:58:25.942Z,26.30
2018-10-16T12:00:59.985Z,26.07
2018-10-16T12:03:34.048Z,25.94
2018-10-16T12:06:08.261Z,26.22
2018-10-16T12:08:42.294Z,26.46
2018-10-16T12:11:16.280Z,26.42
2018-10-16T12:13:50.212Z,26.50
2018-10-16T12:16:27.524Z,26.49
2018-10-16T12:19:06.492Z,26.39
2018-10-16T12:21:40.462Z,26.33
2018-10-16T12:24:14.519Z,26.04
2018-10-16T12:26:48.540Z,25.96
2018-10-16T12:29:22.541Z,25.88
2018-10-16T12:31:56.500Z,25.82
2018-10-16T12:34:30.494Z,25.80
2018-10-16T12:37:04.548Z,25.68
2018-10-16T12:39:38.657Z,25.54
2018-10-16T12:42:12.779Z,25.53
2018-10-16T12:44:46.829Z,25.62
2018-10-16T12:47:20.788Z,25.64
2018-10-16T12:49:54.877Z,25.58
2018-10-16T12:52:28.863Z,25.60
2018-10-16T12:55:02.879Z,25.64
2018-10-16T12:57:36.928Z,25.53
2018-10-16T13:00:11.087Z,25.58
2018-10-16T13:02:45.080Z,25.57
2018-10-16T13:05:19.087Z,25.54
2018-10-16T13:07:53.168Z,25.59
2018-10-16T13:10:27.185Z,25.65
2018-10-16T13:13:01.175Z,25.68
2018-10-16T13:15:35.286Z,25.62
2018-10-16T13:18:09.281Z,25.63
2018-10-16T13:20:43.339Z,25.66
2018-10-16T13:23:17.412Z,25.69
2018-10-16T13:25:51.480Z,25.64
2018-10-16T13:28:25.453Z,25.61
2018-10-16T13:30:59.455Z,25.59
2018-10-16T13:33:33.387Z,25.58
2018-10-16T13:36:07.758Z,25.52
2018-10-16T13:38:41.751Z,25.39
2018-10-16T13:41:15.813Z,25.30
2018-10-16T13:43:49.777Z,25.25
2018-10-16T13:46:23.756Z,25.26
2018-10-16T13:48:57.693Z,25.17
2018-10-16T13:51:31.703Z,25.04
2018-10-16T13:54:06.563Z,24.97
2018-10-16T13:56:40.573Z,24.92
2018-10-16T13:59:14.625Z,24.93
2018-10-16T14:01:48.819Z,24.94
2018-10-16T14:04:22.797Z,24.97
2018-10-16T14:06:56.890Z,24.91
2018-10-16T14:09:30.875Z,24.70
2018-10-16T14:12:04.889Z,24.71
2018-10-16T14:14:38.935Z,24.70
2018-10-16T14:17:13.067Z,24.78
2018-10-16T14:19:47.132Z,24.84
2018-10-16T14:22:21.170Z,24.82
2018-10-16T14:24:55.132Z,24.74
2018-10-16T14:27:29.240Z,24.82
2018-10-16T14:30:03.223Z,24.82
2018-10-16T14:32:37.280Z,24.79
2018-10-16T14:35:12.010Z,24.73
2018-10-16T14:37:45.999Z,24.69
2018-10-16T14:40:20.079Z,24.66
2018-10-16T14:42:54.050Z,24.61
2018-10-16T14:45:27.999Z,24.61
2018-10-16T14:48:02.160Z,24.61
2018-10-16T14:50:36.099Z,24.60
2018-10-16T14:53:10.133Z,24.60
2018-10-16T14:55:44.100Z,24.59
2018-10-16T14:58:18.138Z,24.58
2018-10-16T15:00:52.263Z,24.60
2018-10-16T15:03:26.305Z,24.55
2018-10-16T15:06:00.387Z,24.54
2018-10-16T15:08:34.411Z,24.44
2018-10-16T15:11:08.847Z,24.44
2018-10-16T15:13:42.932Z,24.36
2018-10-16T15:16:17.178Z,24.42
2018-10-16T15:18:51.202Z,24.40
2018-10-16T15:21:26.145Z,24.37
2018-10-16T15:24:01.424Z,24.29
2018-10-16T15:26:36.995Z,24.29
2018-10-16T15:29:11.237Z,24.29
2018-10-16T15:31:46.831Z,24.24
2018-10-16T15:34:20.892Z,24.20
2018-10-16T15:36:54.866Z,24.11
2018-10-16T15:39:28.950Z,24.02
2018-10-16T15:42:03.095Z,23.94
2018-10-16T15:44:37.171Z,23.87
2018-10-16T15:47:11.166Z,23.80
2018-10-16T15:49:45.195Z,23.74
2018-10-16T15:52:19.172Z,23.69
2018-10-16T15:54:53.217Z,23.63
2018-10-16T15:57:27.234Z,23.56
2018-10-16T16:00:01.295Z,23.48
2018-10-16T16:02:35.501Z,23.41
2018-10-16T16:05:09.586Z,23.34
2018-10-16T16:07:43.588Z,23.28
2018-10-16T16:10:17.843Z,23.21
2018-10-16T16:12:51.961Z,23.15
2018-10-16T16:15:25.970Z,23.08
2018-10-16T16:18:00.082Z,23.01
2018-10-16T16:20:34.035Z,22.96
2018-10-16T16:23:08.080Z,22.89
2018-10-16T16:25:42.113Z,22.80
2018-10-16T16:28:16.256Z,22.72
2018-10-16T16:30:50.190Z,22.65
2018-10-16T16:33:24.221Z,22.49
2018-10-16T16:35:58.275Z,22.43
2018-10-16T16:38:32.340Z,22.38
2018-10-16T16:41:06.478Z,22.32
2018-10-16T16:43:40.579Z,22.26
2018-10-16T16:46:14.846Z,22.20
2018-10-16T16:48:48.876Z,22.10
2018-10-16T16:51:23.004Z,22.06
2018-10-16T16:53:56.909Z,22.01
2018-10-16T16:56:30.971Z,21.92
2018-10-16T16:59:05.030Z,21.85
2018-10-16T17:01:39.184Z,21.74
2018-10-16T17:04:13.189Z,21.66
2018-10-16T17:06:47.269Z,21.57
2018-10-16T17:09:25.826Z,21.49
2018-10-16T17:12:00.091Z,21.41
2018-10-16T17:14:34.115Z,21.33
2018-10-16T17:17:08.168Z,21.24
2018-10-16T17:19:42.202Z,21.17
2018-10-16T17:22:16.259Z,21.10
2018-10-16T17:24:50.291Z,21.05
2018-10-16T17:27:24.846Z,20.97
2018-10-16T17:29:58.907Z,20.92
2018-10-16T17:32:32.914Z,20.80
2018-10-16T17:35:08.063Z,20.74
2018-10-16T17:37:42.543Z,20.70
2018-10-16T17:40:17.546Z,20.68
2018-10-16T17:42:51.607Z,20.63
2018-10-16T17:45:25.609Z,20.59
2018-10-16T17:47:59.771Z,20.55
2018-10-16T17:50:33.823Z,20.52
2018-10-16T17:53:07.840Z,20.44
2018-10-16T17:55:41.946Z,20.37
2018-10-16T17:58:16.056Z,20.34
2018-10-16T18:00:50.668Z,20.29
2018-10-16T18:03:41.560Z,20.26
2018-10-16T18:06:17.225Z,20.22
2018-10-16T18:08:54.163Z,20.18
2018-10-16T18:11:28.254Z,20.09
2018-10-16T18:14:02.243Z,20.02
2018-10-16T18:16:37.810Z,19.94
2018-10-16T18:19:13.065Z,19.90
2018-10-16T18:21:47.115Z,19.82
2018-10-16T18:24:21.104Z,19.76
2018-10-16T18:26:55.187Z,19.71
2018-10-16T18:29:29.291Z,19.67
2018-10-16T18:32:03.237Z,19.61
2018-10-16T18:34:37.248Z,19.56
2018-10-16T18:37:11.331Z,19.52
2018-10-16T18:39:45.639Z,19.48
2018-10-16T18:42:19.583Z,19.41
2018-10-16T18:44:53.736Z,19.37
2018-10-16T18:47:27.854Z,19.34
2018-10-16T18:50:01.906Z,19.31
2018-10-16T18:52:35.876Z,19.28
2018-10-16T18:55:12.647Z,19.23
2018-10-16T18:57:46.654Z,19.19
2018-10-16T19:00:21.024Z,19.16
2018-10-16T19:02:55.043Z,19.13
2018-10-16T19:05:29.019Z,19.12
2018-10-16T19:08:03.177Z,19.10
2018-10-16T19:10:37.174Z,19.07
2018-10-16T19:13:11.171Z,19.06
2018-10-16T19:15:45.257Z,19.05
2018-10-16T19:18:19.380Z,19.02
2018-10-16T19:20:53.541Z,19.02
2018-10-16T19:23:27.505Z,19.00
2018-10-16T19:26:01.570Z,18.98
2018-10-16T19:28:35.528Z,18.96
2018-10-16T19:31:09.568Z,18.94
2018-10-16T19:33:43.566Z,18.90
2018-10-16T19:36:17.638Z,18.88
2018-10-16T19:38:51.575Z,18.86
2018-10-16T19:41:25.659Z,18.83
2018-10-16T19:43:59.643Z,18.79
2018-10-16T19:46:33.727Z,18.75
2018-10-16T19:49:07.772Z,18.72
2018-10-16T19:51:41.905Z,18.70
2018-10-16T19:54:15.861Z,18.67
2018-10-16T19:56:49.955Z,18.66
2018-10-16T19:59:23.886Z,18.65
2018-10-16T20:01:58.017Z,18.61
2018-10-16T20:04:32.020Z,18.60
2018-10-16T20:07:06.882Z,18.58
2018-10-16T20:09:40.840Z,18.58
2018-10-16T20:12:14.852Z,18.57
2018-10-16T20:14:48.960Z,18.57
2018-10-16T20:17:22.961Z,18.55
2018-10-16T20:19:57.764Z,18.52
2018-10-16T20:22:31.805Z,18.51
2018-10-16T20:25:06.312Z,18.48
2018-10-16T20:27:40.472Z,18.48
2018-10-16T20:30:15.014Z,18.45
2018-10-16T20:32:49.026Z,18.44
2018-10-16T20:35:23.267Z,18.43
2018-10-16T20:37:57.267Z,18.39
2018-10-16T20:40:31.238Z,18.34
2018-10-16T20:43:05.505Z,18.31
2018-10-16T20:45:39.481Z,18.25
2018-10-16T20:48:13.578Z,18.20
2018-10-16T20:50:47.567Z,18.16
2018-10-16T20:53:21.685Z,18.12
2018-10-16T20:55:57.573Z,18.09
2018-10-16T20:58:32.079Z,18.04
2018-10-16T21:01:06.455Z,18.02
2018-10-16T21:03:40.541Z,17.99
2018-10-16T21:06:14.679Z,17.93
2018-10-16T21:08:48.700Z,17.88
2018-10-16T21:11:22.799Z,17.82
2018-10-16T21:13:56.785Z,17.76
2018-10-16T21:16:30.839Z,17.71
2018-10-16T21:19:04.996Z,17.62
2018-10-16T21:21:38.882Z,17.54
2018-10-16T21:24:12.929Z,17.46
2018-10-16T21:26:56.642Z,17.42
2018-10-16T21:29:30.815Z,17.33
2018-10-16T21:32:05.391Z,17.27
2018-10-16T21:34:39.504Z,17.21
2018-10-16T21:37:13.521Z,17.15
2018-10-16T21:39:47.565Z,17.14
2018-10-16T21:42:21.559Z,17.07
2018-10-16T21:44:55.556Z,17.02
2018-10-16T21:47:29.574Z,17.00
2018-10-16T21:50:03.667Z,16.97
2018-10-16T21:52:37.638Z,16.94
2018-10-16T21:55:11.730Z,16.89
2018-10-16T21:57:45.656Z,16.88
2018-10-16T22:00:24.934Z,16.86
2018-10-16T22:02:59.251Z,16.84
2018-10-16T22:05:33.302Z,16.86
2018-10-16T22:08:07.530Z,16.83
2018-10-16T22:10:41.558Z,16.84
2018-10-16T22:13:15.626Z,16.86
2018-10-16T22:15:49.576Z,16.84
2018-10-16T22:18:23.555Z,16.83
2018-10-16T22:20:57.708Z,16.83
2018-10-16T22:23:31.790Z,16.85
2018-10-16T22:26:08.432Z,16.87
2018-10-16T22:28:42.420Z,16.88
2018-10-16T22:31:16.625Z,16.88
2018-10-16T22:33:50.529Z,16.88
2018-10-16T22:36:25.001Z,16.84
2018-10-16T22:38:59.157Z,16.84
2018-10-16T22:41:33.307Z,16.83
2018-10-16T22:44:08.342Z,16.85
2018-10-16T22:46:42.482Z,16.83
2018-10-16T22:49:16.594Z,16.80
2018-10-16T22:51:50.701Z,16.79
2018-10-16T22:54:24.709Z,16.81
2018-10-16T22:56:58.759Z,16.79
2018-10-16T22:59:32.730Z,16.77
2018-10-16T23:02:07.178Z,16.76
2018-10-16T23:04:41.207Z,16.77
2018-10-16T23:07:15.343Z,16.76
2018-10-16T23:09:49.387Z,16.75
2018-10-16T23:12:23.408Z,16.70
2018-10-16T23:14:57.345Z,16.67
2018-10-16T23:17:31.523Z,16.62
2018-10-16T23:20:06.400Z,16.63
2018-10-16T23:22:40.721Z,16.62
2018-10-16T23:25:14.725Z,16.62
2018-10-16T23:27:48.656Z,16.60
2018-10-16T23:30:22.717Z,16.60
2018-10-16T23:32:56.699Z,16.58
2018-10-16T23:35:30.710Z,16.58
2018-10-16T23:38:04.797Z,16.55
2018-10-16T23:40:38.739Z,16.51
2018-10-16T23:43:12.911Z,16.47
2018-10-16T23:45:46.889Z,16.48
2018-10-16T23:48:20.832Z,16.49
2018-10-16T23:50:54.788Z,16.50
2018-10-16T23:53:28.785Z,16.49
2018-10-16T23:56:02.779Z,16.45
2018-10-16T23:58:36.764Z,16.42
